createdAt,value
2023-03-17T00:02:06.689Z,8.52
2023-03-17T00:04:34.710Z,8.55
2023-03-17T00:07:02.538Z,8.51
2023-03-17T00:09:30.089Z,8.49
2023-03-17T00:11:57.823Z,8.50
2023-03-17T00:14:25.453Z,8.46
2023-03-17T00:16:54.125Z,8.52
2023-03-17T00:19:35.303Z,8.57
2023-03-17T00:22:06.717Z,8.53
2023-03-17T00:24:34.654Z,8.51
2023-03-17T00:27:02.697Z,8.54
2023-03-17T00:29:30.649Z,8.50
2023-03-17T00:31:59.011Z,8.46
2023-03-17T00:34:28.299Z,8.41
2023-03-17T00:36:56.473Z,8.53
2023-03-17T00:39:25.543Z,8.52
2023-03-17T00:41:55.823Z,8.35
2023-03-17T00:44:24.327Z,8.42
2023-03-17T00:46:54.197Z,8.33
2023-03-17T00:49:24.793Z,8.36
2023-03-17T00:51:52.770Z,8.42
2023-03-17T00:54:23.420Z,8.42
2023-03-17T00:56:52.589Z,8.33
2023-03-17T00:59:26.880Z,8.38
2023-03-17T01:01:55.467Z,8.32
2023-03-17T01:04:24.157Z,8.36
2023-03-17T01:06:53.065Z,8.18
2023-03-17T01:09:26.046Z,8.09
2023-03-17T01:11:55.736Z,8.15
2023-03-17T01:14:25.024Z,8.02
2023-03-17T01:16:53.349Z,8.03
2023-03-17T01:19:22.403Z,8.17
2023-03-17T01:21:50.497Z,8.13
2023-03-17T01:24:18.643Z,7.98
2023-03-17T01:26:47.148Z,8.01
2023-03-17T01:29:15.091Z,7.92
2023-03-17T01:31:42.872Z,7.83
2023-03-17T01:34:11.628Z,7.79
2023-03-17T01:36:39.221Z,7.89
2023-03-17T01:39:07.462Z,7.96
2023-03-17T01:41:37.696Z,7.76
2023-03-17T01:44:07.370Z,7.71
2023-03-17T01:46:36.448Z,7.55
2023-03-17T01:49:10.471Z,7.50
2023-03-17T01:51:57.661Z,7.54
2023-03-17T01:54:45.251Z,7.74
2023-03-17T01:57:31.920Z,7.67
2023-03-17T02:00:11.675Z,7.71
2023-03-17T02:02:47.236Z,7.58
2023-03-17T02:05:18.888Z,7.34
2023-03-17T02:07:46.608Z,7.28
2023-03-17T02:10:17.979Z,7.31
2023-03-17T02:12:48.358Z,7.14
2023-03-17T02:15:17.492Z,7.13
2023-03-17T02:17:45.736Z,6.99
2023-03-17T02:20:17.283Z,6.95
2023-03-17T02:22:47.691Z,6.80
2023-03-17T02:25:17.581Z,6.96
2023-03-17T02:27:48.550Z,6.88
2023-03-17T02:30:19.979Z,6.96
2023-03-17T02:32:47.909Z,7.14
2023-03-17T02:35:16.599Z,7.19
2023-03-17T02:37:46.739Z,7.15
2023-03-17T02:40:16.703Z,7.00
2023-03-17T02:42:44.880Z,7.10
2023-03-17T02:45:13.676Z,7.23
2023-03-17T02:47:42.758Z,7.24
2023-03-17T02:50:18.356Z,7.23
2023-03-17T02:52:46.381Z,7.22
2023-03-17T02:55:14.878Z,7.30
2023-03-17T02:57:42.839Z,7.19
2023-03-17T03:00:11.668Z,6.97
2023-03-17T03:02:39.839Z,6.79
2023-03-17T03:05:08.926Z,6.71
2023-03-17T03:07:36.902Z,6.62
2023-03-17T03:10:05.840Z,6.59
2023-03-17T03:12:33.594Z,6.80
2023-03-17T03:15:02.163Z,6.85
2023-03-17T03:17:29.884Z,6.78
2023-03-17T03:19:57.975Z,6.70
2023-03-17T03:22:26.303Z,6.65
2023-03-17T03:24:54.538Z,6.61
2023-03-17T03:27:22.569Z,6.67
2023-03-17T03:29:51.139Z,6.66
2023-03-17T03:32:18.826Z,6.65
2023-03-17T03:34:47.034Z,6.69
2023-03-17T03:37:16.117Z,6.60
2023-03-17T03:39:44.894Z,6.45
2023-03-17T03:42:13.426Z,6.31
2023-03-17T03:44:41.982Z,6.18
2023-03-17T03:47:09.860Z,6.17
2023-03-17T03:49:37.820Z,6.26
2023-03-17T03:52:05.791Z,6.40
2023-03-17T03:54:33.774Z,6.44
2023-03-17T03:57:01.509Z,6.38
2023-03-17T03:59:31.086Z,6.31
2023-03-17T04:01:59.240Z,6.28
2023-03-17T04:04:27.253Z,6.36
2023-03-17T04:06:55.295Z,6.61
2023-03-17T04:09:22.903Z,6.59
2023-03-17T04:11:50.496Z,6.55
2023-03-17T04:14:18.826Z,6.39
2023-03-17T04:16:47.409Z,6.19
2023-03-17T04:19:15.479Z,6.11
2023-03-17T04:21:43.234Z,6.11
2023-03-17T04:24:10.873Z,6.05
2023-03-17T04:26:38.408Z,6.12
2023-03-17T04:29:08.918Z,6.18
2023-03-17T04:31:37.798Z,6.33
2023-03-17T04:34:05.807Z,6.45
2023-03-17T04:36:33.772Z,6.56
2023-03-17T04:39:02.084Z,6.68
2023-03-17T04:41:30.074Z,6.60
2023-03-17T04:43:57.782Z,6.66
2023-03-17T04:46:26.098Z,6.67
2023-03-17T04:48:54.007Z,6.63
2023-03-17T04:51:21.764Z,6.64
2023-03-17T04:53:50.175Z,6.69
2023-03-17T04:56:18.293Z,6.66
2023-03-17T04:58:45.948Z,6.73
2023-03-17T05:01:13.843Z,6.69
2023-03-17T05:03:41.924Z,6.55
2023-03-17T05:06:11.029Z,6.41
2023-03-17T05:08:38.867Z,6.31
2023-03-17T05:11:06.545Z,6.39
2023-03-17T05:13:34.869Z,6.46
2023-03-17T05:16:03.027Z,6.53
2023-03-17T05:18:31.044Z,6.62
2023-03-17T05:20:59.905Z,6.69
2023-03-17T05:23:27.537Z,6.75
2023-03-17T05:25:55.519Z,6.70
2023-03-17T05:28:23.297Z,6.57
2023-03-17T05:30:52.183Z,6.47
2023-03-17T05:33:21.734Z,6.46
2023-03-17T05:35:49.415Z,6.36
2023-03-17T05:38:17.664Z,6.51
2023-03-17T05:40:45.796Z,6.62
2023-03-17T05:43:13.385Z,6.70
2023-03-17T05:45:41.291Z,6.81
2023-03-17T05:48:09.395Z,6.93
2023-03-17T05:50:37.440Z,7.24
2023-03-17T05:53:06.484Z,7.28
2023-03-17T05:55:34.280Z,7.49
2023-03-17T05:58:04.458Z,7.48
2023-03-17T06:00:32.729Z,7.29
2023-03-17T06:03:02.065Z,7.53
2023-03-17T06:05:31.047Z,7.57
2023-03-17T06:07:58.649Z,7.75
2023-03-17T06:10:27.270Z,8.02
2023-03-17T06:12:55.056Z,8.13
2023-03-17T06:15:22.726Z,8.32
2023-03-17T06:17:50.346Z,8.42
2023-03-17T06:20:19.306Z,8.59
2023-03-17T06:23:02.809Z,8.64
2023-03-17T06:25:34.583Z,8.70
2023-03-17T06:28:04.094Z,8.81
2023-03-17T06:30:33.918Z,8.91
2023-03-17T06:33:02.985Z,8.95
2023-03-17T06:35:31.480Z,8.89
2023-03-17T06:37:59.985Z,8.95
2023-03-17T06:40:27.832Z,8.85
2023-03-17T06:42:55.445Z,8.57
2023-03-17T06:45:23.565Z,8.49
2023-03-17T06:47:51.636Z,8.66
2023-03-17T06:50:20.041Z,8.72
2023-03-17T06:52:48.117Z,8.90
2023-03-17T06:55:15.983Z,9.12
2023-03-17T06:57:44.955Z,9.36
2023-03-17T07:00:14.272Z,9.56
2023-03-17T07:02:42.452Z,9.67
2023-03-17T07:05:10.969Z,9.76
2023-03-17T07:07:38.924Z,9.77
2023-03-17T07:10:10.419Z,9.84
2023-03-17T07:12:38.495Z,9.89
2023-03-17T07:15:06.795Z,10.16
2023-03-17T07:17:34.593Z,10.28
2023-03-17T07:20:02.302Z,10.34
2023-03-17T07:22:29.897Z,10.43
2023-03-17T07:24:57.696Z,10.38
2023-03-17T07:27:26.653Z,10.64
2023-03-17T07:29:54.690Z,10.62
2023-03-17T07:32:22.901Z,10.84
2023-03-17T07:34:51.008Z,11.16
2023-03-17T07:37:19.545Z,11.56
2023-03-17T07:39:48.287Z,11.68
2023-03-17T07:42:17.214Z,11.89
2023-03-17T07:44:46.128Z,11.82
2023-03-17T07:47:14.835Z,12.10
2023-03-17T07:49:42.672Z,12.29
2023-03-17T07:52:12.751Z,12.56
2023-03-17T07:54:43.021Z,12.90
2023-03-17T07:57:12.586Z,13.05
2023-03-17T07:59:41.798Z,13.10
2023-03-17T08:02:16.452Z,13.34
2023-03-17T08:04:45.303Z,13.28
2023-03-17T08:07:14.751Z,13.23
2023-03-17T08:09:42.849Z,13.39
2023-03-17T08:12:11.847Z,13.17
2023-03-17T08:14:39.858Z,12.91
2023-03-17T08:17:07.882Z,13.37
2023-03-17T08:19:36.029Z,13.13
2023-03-17T08:22:04.156Z,13.57
2023-03-17T08:24:32.836Z,13.39
2023-03-17T08:27:01.649Z,13.82
2023-03-17T08:29:30.148Z,13.60
2023-03-17T08:31:57.902Z,13.52
2023-03-17T08:34:26.457Z,14.13
2023-03-17T08:36:54.568Z,14.25
2023-03-17T08:39:22.638Z,14.06
2023-03-17T08:41:51.065Z,13.95
2023-03-17T08:44:19.647Z,14.13
2023-03-17T08:46:49.588Z,13.91
2023-03-17T08:49:17.914Z,13.11
2023-03-17T08:51:46.449Z,13.72
2023-03-17T08:54:15.336Z,13.21
2023-03-17T08:56:43.080Z,13.58
2023-03-17T08:59:11.341Z,13.29
2023-03-17T09:01:40.431Z,13.99
2023-03-17T09:04:09.024Z,14.31
2023-03-17T09:06:38.790Z,14.61
2023-03-17T09:09:07.978Z,14.29
2023-03-17T09:11:35.791Z,15.05
2023-03-17T09:14:03.820Z,15.99
2023-03-17T09:16:34.208Z,16.34
2023-03-17T09:19:02.482Z,16.90
2023-03-17T09:21:30.536Z,17.56
2023-03-17T09:24:01.684Z,16.84
2023-03-17T09:26:30.620Z,18.12
2023-03-17T09:28:59.305Z,18.05
2023-03-17T09:31:27.878Z,17.18
2023-03-17T09:33:56.200Z,18.78
2023-03-17T09:36:24.300Z,19.81
2023-03-17T09:38:52.780Z,19.82
2023-03-17T09:41:20.916Z,19.14
2023-03-17T09:44:03.778Z,18.76
2023-03-17T09:46:59.726Z,18.41
2023-03-17T09:49:46.144Z,19.71
2023-03-17T09:52:16.739Z,21.47
2023-03-17T09:54:49.616Z,20.02
2023-03-17T09:57:25.303Z,19.02
2023-03-17T10:00:06.677Z,19.83
2023-03-17T10:02:39.568Z,18.42
2023-03-17T10:05:13.650Z,18.38
2023-03-17T10:08:22.769Z,19.72
2023-03-17T10:11:34.060Z,20.77
2023-03-17T10:14:17.951Z,18.90
2023-03-17T10:16:54.794Z,20.26
2023-03-17T10:19:35.407Z,20.35
2023-03-17T10:22:13.308Z,21.26
2023-03-17T10:24:46.770Z,22.00
2023-03-17T10:27:16.205Z,22.54
2023-03-17T10:29:46.513Z,20.36
2023-03-17T10:32:16.214Z,20.33
2023-03-17T10:34:43.925Z,20.78
2023-03-17T10:37:19.550Z,20.62
2023-03-17T10:39:51.216Z,22.10
2023-03-17T10:42:30.689Z,23.75
2023-03-17T10:45:01.489Z,24.00
2023-03-17T10:47:35.703Z,22.94
2023-03-17T11:04:47.070Z,22.11
2023-03-17T11:07:20.414Z,23.43
2023-03-17T11:09:50.873Z,22.70
2023-03-17T11:12:34.916Z,22.22
2023-03-17T11:15:04.111Z,23.15
2023-03-17T11:17:46.595Z,22.67
2023-03-17T11:20:33.359Z,22.36
2023-03-17T11:23:29.050Z,24.30
2023-03-17T11:26:31.349Z,22.06
2023-03-17T11:29:33.117Z,23.14
2023-03-17T11:32:21.005Z,22.65
2023-03-17T11:35:08.446Z,21.66
2023-03-17T11:38:11.076Z,22.66
2023-03-17T11:41:04.975Z,22.61
2023-03-17T11:44:01.622Z,21.43
2023-03-17T11:46:37.125Z,23.52
2023-03-17T11:49:20.474Z,23.08
2023-03-17T11:52:12.304Z,22.61
2023-03-17T11:54:59.002Z,21.36
2023-03-17T11:57:34.720Z,21.31
2023-03-17T12:00:20.395Z,22.49
2023-03-17T12:03:19.246Z,23.39
2023-03-17T12:05:51.606Z,21.79
2023-03-17T12:08:34.507Z,23.05
2023-03-17T12:11:09.202Z,23.11
2023-03-17T12:13:46.853Z,21.41
2023-03-17T12:16:15.766Z,21.88
2023-03-17T12:19:05.101Z,22.06
2023-03-17T12:21:47.675Z,23.43
2023-03-17T12:24:34.830Z,22.77
2023-03-17T12:27:12.767Z,22.00
2023-03-17T12:29:55.138Z,23.60
2023-03-17T12:32:26.396Z,23.95
2023-03-17T12:34:57.594Z,23.08
2023-03-17T12:37:30.195Z,22.09
2023-03-17T12:40:13.037Z,22.23
2023-03-17T12:43:06.143Z,22.15
2023-03-17T12:45:59.079Z,22.83
2023-03-17T12:48:43.855Z,23.32
2023-03-17T12:51:42.447Z,21.82
2023-03-17T12:54:20.417Z,22.83
2023-03-17T12:56:49.765Z,23.92
2023-03-17T12:59:26.140Z,22.77
2023-03-17T13:01:58.245Z,22.31
2023-03-17T13:04:33.139Z,24.36
2023-03-17T13:07:15.973Z,25.14
2023-03-17T13:10:09.924Z,24.14
2023-03-17T13:12:41.579Z,24.32
2023-03-17T13:15:50.335Z,25.18
2023-03-17T13:18:19.828Z,26.00
2023-03-17T13:20:56.935Z,24.12
2023-03-17T13:23:44.689Z,24.31
2023-03-17T13:26:16.373Z,25.75
2023-03-17T13:28:48.229Z,24.15
2023-03-17T13:31:32.050Z,25.51
2023-03-17T13:34:07.853Z,26.65
2023-03-17T13:37:05.627Z,28.30
2023-03-17T13:39:45.044Z,27.00
2023-03-17T13:42:48.838Z,25.91
2023-03-17T13:45:44.262Z,23.72
2023-03-17T13:48:36.375Z,25.31
2023-03-17T13:51:15.469Z,29.36
2023-03-17T13:53:59.249Z,26.21
2023-03-17T13:56:42.018Z,29.04
2023-03-17T13:59:16.982Z,29.05
2023-03-17T14:01:58.799Z,29.66
2023-03-17T14:04:30.939Z,28.12
2023-03-17T14:07:05.012Z,29.07
2023-03-17T14:09:41.563Z,27.69
2023-03-17T14:12:22.389Z,30.78
2023-03-17T14:14:57.041Z,30.14
2023-03-17T14:17:33.328Z,30.52
2023-03-17T14:20:19.343Z,27.71
2023-03-17T14:23:02.173Z,30.74
2023-03-17T14:25:38.820Z,30.03
2023-03-17T14:28:11.910Z,26.32
2023-03-17T14:30:40.882Z,28.86
2023-03-17T14:33:12.220Z,29.51
2023-03-17T14:35:43.589Z,28.13
2023-03-17T14:38:22.986Z,29.32
2023-03-17T14:40:59.725Z,28.95
2023-03-17T14:43:28.056Z,30.68
2023-03-17T14:46:06.810Z,31.99
2023-03-17T14:48:37.987Z,27.96
2023-03-17T14:51:18.223Z,24.19
2023-03-17T14:53:46.724Z,25.96
2023-03-17T14:56:14.630Z,26.53
2023-03-17T14:58:49.335Z,27.47
2023-03-17T15:01:42.898Z,26.88
2023-03-17T15:04:18.084Z,27.79
2023-03-17T15:06:57.326Z,25.44
2023-03-17T15:09:37.636Z,23.30
2023-03-17T15:12:26.340Z,24.94
2023-03-17T15:15:00.471Z,25.04
2023-03-17T15:17:35.894Z,22.55
2023-03-17T15:20:15.833Z,22.79
2023-03-17T15:22:48.743Z,23.00
2023-03-17T15:25:29.142Z,21.38
2023-03-17T15:27:57.881Z,22.01
2023-03-17T15:30:29.466Z,22.96
2023-03-17T15:33:03.201Z,23.12
2023-03-17T15:35:31.815Z,22.36
2023-03-17T15:37:59.981Z,21.76
2023-03-17T15:40:28.290Z,20.35
2023-03-17T15:42:57.296Z,20.77
2023-03-17T15:45:24.882Z,20.57
2023-03-17T15:47:53.359Z,21.49
2023-03-17T15:50:29.503Z,19.67
2023-03-17T15:52:58.024Z,20.25
2023-03-17T15:55:31.398Z,19.35
2023-03-17T15:57:59.936Z,18.52
2023-03-17T16:00:30.242Z,18.58
2023-03-17T16:03:02.754Z,17.82
2023-03-17T16:05:33.998Z,17.88
2023-03-17T16:08:02.362Z,17.92
2023-03-17T16:10:33.346Z,17.46
2023-03-17T16:13:01.452Z,17.79
2023-03-17T16:15:32.395Z,18.02
2023-03-17T16:18:07.549Z,17.88
2023-03-17T16:20:41.688Z,17.19
2023-03-17T16:23:16.357Z,16.91
2023-03-17T16:25:45.806Z,17.21
2023-03-17T16:28:17.192Z,17.17
2023-03-17T16:30:46.567Z,17.03
2023-03-17T16:33:38.790Z,16.46
2023-03-17T16:36:07.220Z,16.50
2023-03-17T16:38:35.474Z,16.68
2023-03-17T16:41:19.333Z,16.15
2023-03-17T16:43:51.198Z,16.11
2023-03-17T16:46:21.416Z,15.97
2023-03-17T16:48:50.327Z,16.00
2023-03-17T16:51:18.947Z,15.78
2023-03-17T16:53:47.320Z,15.65
2023-03-17T16:56:19.231Z,15.81
2023-03-17T16:58:48.006Z,15.78
2023-03-17T17:01:28.213Z,15.58
2023-03-17T17:03:57.066Z,15.70
2023-03-17T17:06:24.896Z,15.54
2023-03-17T17:08:53.445Z,15.63
2023-03-17T17:11:21.796Z,15.57
2023-03-17T17:13:50.185Z,15.55
2023-03-17T17:16:29.812Z,15.48
2023-03-17T17:18:59.375Z,15.23
2023-03-17T17:21:28.018Z,15.11
2023-03-17T17:23:56.590Z,15.10
2023-03-17T17:26:24.650Z,15.00
2023-03-17T17:28:53.162Z,15.03
2023-03-17T17:31:21.914Z,15.03
2023-03-17T17:33:49.697Z,14.90
2023-03-17T17:36:18.176Z,14.95
2023-03-17T17:38:46.855Z,14.93
2023-03-17T17:41:17.094Z,14.97
2023-03-17T17:43:46.285Z,14.91
2023-03-17T17:46:20.052Z,14.86
2023-03-17T17:48:48.113Z,14.70
2023-03-17T17:51:16.896Z,14.65
2023-03-17T17:53:45.421Z,14.57
2023-03-17T17:56:18.368Z,14.53
2023-03-17T17:58:46.599Z,14.53
2023-03-17T18:01:17.044Z,14.48
2023-03-17T18:03:46.062Z,14.46
2023-03-17T18:06:14.259Z,14.43
2023-03-17T18:08:43.582Z,14.40
2023-03-17T18:11:12.302Z,14.39
2023-03-17T18:13:41.090Z,14.31
2023-03-17T18:16:10.175Z,14.22
2023-03-17T18:18:40.760Z,14.23
2023-03-17T18:21:08.384Z,14.24
2023-03-17T18:23:37.128Z,14.03
2023-03-17T18:26:06.298Z,13.88
2023-03-17T18:28:34.606Z,13.96
2023-03-17T18:31:11.007Z,13.85
2023-03-17T18:33:41.409Z,13.75
2023-03-17T18:36:11.498Z,13.64
2023-03-17T18:38:39.282Z,13.57
2023-03-17T18:41:08.273Z,13.53
2023-03-17T18:43:36.132Z,13.38
2023-03-17T18:46:04.705Z,13.23
2023-03-17T18:48:33.119Z,13.29
2023-03-17T18:51:00.754Z,13.37
2023-03-17T18:53:30.812Z,13.30
2023-03-17T18:55:59.562Z,13.28
2023-03-17T18:58:28.078Z,13.17
2023-03-17T19:01:01.103Z,13.21
2023-03-17T19:03:32.270Z,13.25
2023-03-17T19:06:16.228Z,13.20
2023-03-17T19:08:45.111Z,12.99
2023-03-17T19:11:15.604Z,13.02
2023-03-17T19:13:44.907Z,12.89
2023-03-17T19:16:14.162Z,12.92
2023-03-17T19:18:42.996Z,12.84
2023-03-17T19:21:12.221Z,12.78
2023-03-17T19:23:41.633Z,12.87
2023-03-17T19:26:10.518Z,12.87
2023-03-17T19:28:38.354Z,12.94
2023-03-17T19:31:06.591Z,12.79
2023-03-17T19:33:34.323Z,12.66
2023-03-17T19:36:13.476Z,12.61
2023-03-17T19:38:41.684Z,12.67
2023-03-17T19:41:09.900Z,12.64
2023-03-17T19:43:41.241Z,12.49
2023-03-17T19:46:11.975Z,12.50
2023-03-17T19:48:40.823Z,12.43
2023-03-17T19:51:09.468Z,12.40
2023-03-17T19:53:37.824Z,12.34
2023-03-17T19:56:06.772Z,12.32
2023-03-17T19:58:35.385Z,12.33
2023-03-17T20:01:04.952Z,12.20
2023-03-17T20:03:35.276Z,12.16
2023-03-17T20:06:06.143Z,12.04
2023-03-17T20:08:34.233Z,11.94
2023-03-17T20:11:03.374Z,11.88
2023-03-17T20:13:31.709Z,11.73
2023-03-17T20:16:01.788Z,11.59
2023-03-17T20:18:31.229Z,11.53
2023-03-17T20:21:00.355Z,11.47
2023-03-17T20:23:28.463Z,11.33
2023-03-17T20:25:57.154Z,11.23
2023-03-17T20:28:25.395Z,11.15
2023-03-17T20:30:53.792Z,11.20
2023-03-17T20:33:22.079Z,11.16
2023-03-17T20:35:51.656Z,11.33
2023-03-17T20:38:20.513Z,11.39
2023-03-17T20:40:48.492Z,11.31
2023-03-17T20:43:17.142Z,11.34
2023-03-17T20:45:44.954Z,11.33
2023-03-17T20:48:14.156Z,11.16
2023-03-17T20:50:50.107Z,11.28
2023-03-17T20:53:18.133Z,11.27
2023-03-17T20:55:47.320Z,11.27
2023-03-17T20:58:14.892Z,11.36
2023-03-17T21:00:42.552Z,11.31
2023-03-17T21:03:10.854Z,11.18
2023-03-17T21:05:39.537Z,11.12
2023-03-17T21:08:08.751Z,11.13
2023-03-17T21:10:36.406Z,11.13
2023-03-17T21:13:04.770Z,10.95
2023-03-17T21:15:33.146Z,10.90
2023-03-17T21:18:01.188Z,10.86
2023-03-17T21:20:28.784Z,10.83
2023-03-17T21:22:56.906Z,10.95
2023-03-17T21:25:24.897Z,10.97
2023-03-17T21:27:52.928Z,10.91
2023-03-17T21:30:21.556Z,10.84
2023-03-17T21:32:49.418Z,10.62
2023-03-17T21:35:18.266Z,10.57
2023-03-17T21:37:45.937Z,10.66
2023-03-17T21:40:15.707Z,10.73
2023-03-17T21:42:44.606Z,10.77
2023-03-17T21:45:13.941Z,10.74
2023-03-17T21:47:42.666Z,10.74
2023-03-17T21:50:11.592Z,10.86
2023-03-17T21:52:40.055Z,10.80
2023-03-17T21:55:09.477Z,10.74
2023-03-17T21:57:38.083Z,10.55
2023-03-17T22:00:09.696Z,10.39
2023-03-17T22:02:41.859Z,10.37
2023-03-17T22:05:10.540Z,10.47
2023-03-17T22:07:41.161Z,10.51
2023-03-17T22:10:10.089Z,10.39
2023-03-17T22:12:38.953Z,10.45
2023-03-17T22:15:10.356Z,10.40
2023-03-17T22:17:39.765Z,10.40
2023-03-17T22:20:09.218Z,10.40
2023-03-17T22:22:36.935Z,10.33
2023-03-17T22:25:06.308Z,10.27
2023-03-17T22:27:34.540Z,10.33
2023-03-17T22:30:02.810Z,10.20
2023-03-17T22:32:31.506Z,10.17
2023-03-17T22:35:00.278Z,10.13
2023-03-17T22:37:28.299Z,10.16
2023-03-17T22:39:56.137Z,10.05
2023-03-17T22:42:24.209Z,10.02
2023-03-17T22:44:52.237Z,10.02
2023-03-17T22:47:20.965Z,9.87
2023-03-17T22:49:48.783Z,9.85
2023-03-17T22:52:16.548Z,9.89
2023-03-17T22:54:44.075Z,9.88
2023-03-17T22:57:11.728Z,9.77
2023-03-17T22:59:40.533Z,9.73
2023-03-17T23:02:08.754Z,9.80
2023-03-17T23:04:37.006Z,9.62
2023-03-17T23:07:05.630Z,9.49
2023-03-17T23:09:33.589Z,9.55
2023-03-17T23:12:01.584Z,9.54
2023-03-17T23:14:29.310Z,9.54
2023-03-17T23:16:57.524Z,9.41
2023-03-17T23:19:25.076Z,9.51
2023-03-17T23:21:53.041Z,9.46
2023-03-17T23:24:21.017Z,9.49
2023-03-17T23:26:49.159Z,9.40
2023-03-17T23:29:17.162Z,9.34
2023-03-17T23:31:44.862Z,9.32
2023-03-17T23:34:12.573Z,9.28
2023-03-17T23:36:40.740Z,9.06
2023-03-17T23:39:09.921Z,8.92
2023-03-17T23:41:37.970Z,8.99
2023-03-17T23:44:06.640Z,9.05
2023-03-17T23:46:34.269Z,9.21
2023-03-17T23:49:02.883Z,9.16
2023-03-17T23:51:31.092Z,9.02
2023-03-17T23:53:59.202Z,8.95
2023-03-17T23:56:27.558Z,9.05
2023-03-17T23:58:56.013Z,9.16
